createdAt,value
2022-08-27T00:02:11.707Z,98083.09
2022-08-27T00:04:38.836Z,98081.28
2022-08-27T00:07:06.291Z,98083.97
2022-08-27T00:09:33.012Z,98084.94
2022-08-27T00:11:59.932Z,98081.47
2022-08-27T00:14:28.015Z,98077.78
2022-08-27T00:16:55.724Z,98083.25
2022-08-27T00:19:22.550Z,98066.22
2022-08-27T00:21:49.195Z,98078.78
2022-08-27T00:24:15.958Z,98081.47
2022-08-27T00:26:43.457Z,98077.94
2022-08-27T00:29:10.573Z,98081.59
2022-08-27T00:31:37.648Z,98074.44
2022-08-27T00:34:05.244Z,98086.09
2022-08-27T00:36:34.157Z,98080.94
2022-08-27T00:39:00.760Z,98090.59
2022-08-27T00:41:27.613Z,98084.41
2022-08-27T00:43:57.760Z,98084.56
2022-08-27T00:46:30.567Z,98084.56
2022-08-27T00:49:02.653Z,98084.75
2022-08-27T00:51:30.756Z,98084.75
2022-08-27T00:53:58.951Z,98084.75
2022-08-27T00:56:29.524Z,98084.88
2022-08-27T00:58:56.981Z,98086.72
2022-08-27T01:01:29.361Z,98085.88
2022-08-27T01:04:00.690Z,98090.19
2022-08-27T01:06:33.972Z,98087.69
2022-08-27T01:09:12.164Z,98099.22
2022-08-27T01:11:39.161Z,98100.19
2022-08-27T01:14:06.730Z,98087.00
2022-08-27T01:16:38.240Z,98094.19
2022-08-27T01:19:09.670Z,98085.34
2022-08-27T01:21:45.999Z,98076.44
2022-08-27T01:24:24.727Z,98090.81
2022-08-27T01:26:51.855Z,98087.50
2022-08-27T01:29:18.866Z,98086.50
2022-08-27T01:31:45.551Z,98086.63
2022-08-27T01:34:12.406Z,98077.81
2022-08-27T01:36:39.023Z,98083.31
2022-08-27T01:39:05.695Z,98081.63
2022-08-27T01:41:32.945Z,98077.28
2022-08-27T01:43:59.786Z,98068.22
2022-08-27T01:46:28.454Z,98068.44
2022-08-27T01:48:55.963Z,98064.88
2022-08-27T01:51:22.602Z,98076.59
2022-08-27T01:53:49.787Z,98072.25
2022-08-27T01:56:16.553Z,98073.28
2022-08-27T01:58:44.255Z,98070.59
2022-08-27T02:01:14.068Z,98070.91
2022-08-27T02:03:41.433Z,98072.56
2022-08-27T02:06:10.175Z,98079.72
2022-08-27T02:08:37.749Z,98078.19
2022-08-27T02:11:05.566Z,98073.72
2022-08-27T02:13:32.181Z,98066.16
2022-08-27T02:15:58.914Z,98074.84
2022-08-27T02:18:25.723Z,98074.97
2022-08-27T02:20:52.381Z,98079.47
2022-08-27T02:23:19.175Z,98075.97
2022-08-27T02:25:48.954Z,98076.97
2022-08-27T02:28:16.326Z,98078.13
2022-08-27T02:30:43.097Z,98083.28
2022-08-27T02:33:09.987Z,98081.59
2022-08-27T02:35:39.923Z,98078.94
2022-08-27T02:38:07.927Z,98080.78
2022-08-27T02:40:36.122Z,98075.56
2022-08-27T02:43:03.116Z,98077.41
2022-08-27T02:45:29.926Z,98074.75
2022-08-27T02:47:56.662Z,98073.06
2022-08-27T02:50:27.022Z,98074.91
2022-08-27T02:52:54.785Z,98059.69
2022-08-27T02:55:22.507Z,98067.22
2022-08-27T02:57:49.192Z,98064.56
2022-08-27T03:00:19.162Z,98068.19
2022-08-27T03:02:45.890Z,98063.03
2022-08-27T03:05:13.304Z,98055.97
2022-08-27T03:07:40.432Z,98063.34
2022-08-27T03:10:08.387Z,98048.28
2022-08-27T03:12:36.366Z,98060.81
2022-08-27T03:15:05.667Z,98059.19
2022-08-27T03:17:51.011Z,98055.81
2022-08-27T03:20:18.606Z,98056.81
2022-08-27T03:22:45.930Z,98042.59
2022-08-27T03:25:12.700Z,98057.94
2022-08-27T03:27:39.944Z,98049.97
2022-08-27T03:30:13.493Z,98052.78
2022-08-27T03:32:40.195Z,98057.25
2022-08-27T03:35:07.636Z,98057.41
2022-08-27T03:37:35.064Z,98050.25
2022-08-27T03:40:02.193Z,98046.91
2022-08-27T03:42:28.873Z,98046.06
2022-08-27T03:44:55.571Z,98048.06
2022-08-27T03:47:23.754Z,98053.22
2022-08-27T03:49:50.418Z,98059.53
2022-08-27T03:52:17.460Z,98052.38
2022-08-27T03:54:44.058Z,97980.25
2022-08-27T03:57:11.033Z,98056.06
2022-08-27T03:59:38.100Z,98059.69
2022-08-27T04:02:05.352Z,98057.03
2022-08-27T04:04:32.426Z,98052.59
2022-08-27T04:06:59.966Z,98055.50
2022-08-27T04:09:26.632Z,98051.19
2022-08-27T04:11:53.496Z,98057.31
2022-08-27T04:14:26.116Z,98042.13
2022-08-27T04:16:56.199Z,98054.81
2022-08-27T04:19:27.728Z,98055.09
2022-08-27T04:22:02.571Z,98054.28
2022-08-27T04:24:31.651Z,98054.97
2022-08-27T04:27:02.815Z,98045.91
2022-08-27T04:29:29.599Z,98058.47
2022-08-27T04:31:57.896Z,98061.97
2022-08-27T04:34:24.579Z,98051.47
2022-08-27T04:36:51.443Z,98068.13
2022-08-27T04:39:20.611Z,98053.13
2022-08-27T04:41:50.497Z,98054.81
2022-08-27T04:44:17.108Z,98058.31
2022-08-27T04:46:46.026Z,98056.66
2022-08-27T04:49:17.007Z,98052.16
2022-08-27T04:51:43.618Z,98057.47
2022-08-27T04:54:10.660Z,98040.59
2022-08-27T04:56:37.941Z,98044.16
2022-08-27T04:59:06.805Z,98051.34
2022-08-27T05:01:33.788Z,98049.34
2022-08-27T05:04:00.878Z,98052.84
2022-08-27T05:06:28.127Z,98054.66
2022-08-27T05:08:55.997Z,98049.22
2022-08-27T05:11:25.914Z,98051.00
2022-08-27T05:13:52.775Z,98059.84
2022-08-27T05:16:22.370Z,98058.03
2022-08-27T05:18:51.721Z,98061.50
2022-08-27T05:21:20.176Z,98065.84
2022-08-27T05:26:16.057Z,98052.53
2022-08-27T05:28:42.947Z,98055.19
2022-08-27T05:31:11.270Z,98056.06
2022-08-27T05:33:39.880Z,98048.06
2022-08-27T05:36:07.483Z,98046.38
2022-08-27T05:38:34.669Z,98055.34
2022-08-27T05:41:06.334Z,98052.00
2022-08-27T05:43:33.310Z,98048.34
2022-08-27T05:46:05.721Z,98048.19
2022-08-27T05:50:49.024Z,98060.53
2022-08-27T05:53:15.695Z,98060.53
2022-08-27T05:55:45.535Z,98061.38
2022-08-27T05:58:33.595Z,98055.50
2022-08-27T06:01:10.091Z,98065.69
2022-08-27T06:03:38.314Z,98053.13
2022-08-27T06:06:11.240Z,98061.91
2022-08-27T06:08:38.767Z,98060.53
2022-08-27T06:11:07.472Z,98076.03
2022-08-27T06:13:35.270Z,98073.38
2022-08-27T06:16:08.815Z,98073.22
2022-08-27T06:18:38.396Z,98077.56
2022-08-27T06:21:06.494Z,98076.03
2022-08-27T06:23:34.402Z,98074.75
2022-08-27T06:26:05.628Z,98084.41
2022-08-27T06:28:32.312Z,98076.44
2022-08-27T06:31:06.934Z,98081.59
2022-08-27T06:33:34.289Z,98072.63
2022-08-27T06:36:06.326Z,98075.16
2022-08-27T06:38:34.055Z,98073.31
2022-08-27T06:41:04.290Z,98024.09
2022-08-27T06:43:31.183Z,98080.31
2022-08-27T06:45:57.842Z,98083.81
2022-08-27T06:48:24.495Z,98086.31
2022-08-27T06:50:51.151Z,98093.31
2022-08-27T06:53:17.808Z,98087.00
2022-08-27T06:55:51.218Z,98090.53
2022-08-27T06:58:19.483Z,98088.69
2022-08-27T07:00:48.999Z,98089.50
2022-08-27T07:03:15.830Z,98087.69
2022-08-27T07:05:42.494Z,98084.06
2022-08-27T07:08:10.836Z,98083.03
2022-08-27T07:10:38.180Z,98086.41
2022-08-27T07:13:05.277Z,98081.22
2022-08-27T07:15:32.964Z,98075.44
2022-08-27T07:18:01.976Z,98085.94
2022-08-27T07:20:31.931Z,98079.75
2022-08-27T07:22:58.659Z,98082.44
2022-08-27T07:25:26.503Z,98074.06
2022-08-27T07:27:53.224Z,98086.63
2022-08-27T07:30:19.784Z,98089.97
2022-08-27T07:32:47.430Z,98090.13
2022-08-27T07:35:14.308Z,98097.84
2022-08-27T07:37:43.883Z,98105.69
2022-08-27T07:40:14.290Z,98105.53
2022-08-27T07:43:01.026Z,98104.53
2022-08-27T07:45:29.705Z,98104.53
2022-08-27T07:47:56.492Z,98113.34
2022-08-27T07:50:23.629Z,98103.44
2022-08-27T07:52:51.416Z,98118.56
2022-08-27T07:55:18.812Z,98122.03
2022-08-27T07:57:45.428Z,98122.88
2022-08-27T08:00:13.151Z,98128.91
2022-08-27T08:02:42.226Z,98121.72
2022-08-27T08:05:10.076Z,98127.91
2022-08-27T08:09:51.800Z,98126.06
2022-08-27T08:12:18.474Z,98120.59
2022-08-27T08:14:57.831Z,98129.44
2022-08-27T08:17:25.665Z,98130.25
2022-08-27T08:20:17.628Z,98133.78
2022-08-27T08:22:40.619Z,98140.78
2022-08-27T08:25:07.590Z,98147.78
2022-08-27T08:27:41.067Z,98150.28
2022-08-27T08:30:09.557Z,98147.63
2022-08-27T08:32:36.820Z,98150.13
2022-08-27T08:35:04.404Z,98156.28
2022-08-27T08:37:31.293Z,98154.47
2022-08-27T08:39:57.981Z,98153.63
2022-08-27T08:42:42.543Z,98145.50
2022-08-27T08:45:19.559Z,98149.84
2022-08-27T08:48:06.117Z,98149.00
2022-08-27T08:50:56.296Z,98150.50
2022-08-27T08:53:41.016Z,98151.50
2022-08-27T08:56:15.258Z,98153.16
2022-08-27T08:58:48.015Z,98158.50
2022-08-27T09:01:18.644Z,98156.53
2022-08-27T09:03:53.547Z,98154.84
2022-08-27T09:06:38.120Z,98155.53
2022-08-27T09:09:16.887Z,98145.72
2022-08-27T09:11:52.231Z,98142.06
2022-08-27T09:14:40.611Z,98149.22
2022-08-27T09:17:12.071Z,98147.38
2022-08-27T09:19:38.962Z,98153.41
2022-08-27T09:22:28.490Z,98138.31
2022-08-27T09:25:10.386Z,98152.41
2022-08-27T09:27:41.840Z,98153.41
2022-08-27T09:30:20.766Z,98146.25
2022-08-27T09:33:01.162Z,98146.06
2022-08-27T09:35:34.559Z,98155.75
2022-08-27T09:38:02.979Z,98148.63
2022-08-27T09:40:40.932Z,98152.09
2022-08-27T09:43:29.964Z,98152.94
2022-08-27T09:46:05.260Z,98152.78
2022-08-27T09:48:37.389Z,98150.97
2022-08-27T09:51:13.950Z,98140.28
2022-08-27T09:53:50.387Z,98135.81
2022-08-27T09:56:30.694Z,98134.81
2022-08-27T09:59:03.500Z,98134.81
2022-08-27T10:01:33.097Z,98130.31
2022-08-27T10:04:15.264Z,98123.31
2022-08-27T10:06:50.418Z,98137.34
2022-08-27T10:09:33.022Z,98125.81
2022-08-27T10:12:06.605Z,98131.84
2022-08-27T10:14:45.228Z,98124.66
2022-08-27T10:17:37.940Z,98136.19
2022-08-27T10:20:40.968Z,98131.69
2022-08-27T10:23:14.917Z,98124.53
2022-08-27T10:25:58.520Z,98127.22
2022-08-27T10:28:40.016Z,98125.38
2022-08-27T10:31:09.451Z,98129.72
2022-08-27T10:34:03.832Z,98126.06
2022-08-27T10:36:49.134Z,98125.19
2022-08-27T10:39:38.012Z,98119.56
2022-08-27T10:42:04.654Z,98118.72
2022-08-27T10:44:50.981Z,98118.72
2022-08-27T10:47:50.028Z,98113.25
2022-08-27T10:50:35.176Z,98108.75
2022-08-27T10:53:08.559Z,98111.41
2022-08-27T10:55:45.920Z,98113.09
2022-08-27T10:58:34.210Z,98116.56
2022-08-27T11:01:17.233Z,98111.25
2022-08-27T11:03:50.435Z,98105.78
2022-08-27T11:07:03.583Z,98105.78
2022-08-27T11:09:36.427Z,98110.09
2022-08-27T11:12:14.234Z,98108.28
2022-08-27T11:14:54.429Z,98112.63
2022-08-27T11:17:32.669Z,98118.78
2022-08-27T11:20:04.524Z,98116.81
2022-08-27T11:22:42.383Z,98114.97
2022-08-27T11:25:26.135Z,98102.44
2022-08-27T11:27:56.363Z,98110.50
2022-08-27T11:30:38.547Z,98111.16
2022-08-27T11:37:58.723Z,98103.88
2022-08-27T11:40:51.026Z,98100.22
2022-08-27T11:43:22.519Z,98099.22
2022-08-27T11:45:58.942Z,98106.06
2022-08-27T11:48:29.732Z,98098.72
2022-08-27T11:50:59.323Z,98102.09
2022-08-27T11:53:47.693Z,98088.91
2022-08-27T11:56:36.701Z,98098.09
2022-08-27T11:59:21.716Z,98094.44
2022-08-27T12:01:51.584Z,98094.28
2022-08-27T12:04:32.696Z,98089.63
2022-08-27T12:07:05.085Z,98086.81
2022-08-27T12:09:51.516Z,98091.16
2022-08-27T12:12:42.119Z,98083.16
2022-08-27T12:15:17.785Z,98084.00
2022-08-27T12:17:58.394Z,98076.81
2022-08-27T12:20:43.978Z,98071.50
2022-08-27T12:23:42.358Z,98071.66
2022-08-27T12:26:42.793Z,98074.97
2022-08-27T12:29:18.397Z,98076.00
2022-08-27T12:31:48.694Z,98078.50
2022-08-27T12:34:28.738Z,98074.97
2022-08-27T12:36:56.299Z,98070.66
2022-08-27T12:39:28.680Z,98068.66
2022-08-27T12:41:55.761Z,98070.34
2022-08-27T12:44:27.480Z,98069.34
2022-08-27T12:47:13.300Z,98056.00
2022-08-27T12:49:55.759Z,98062.16
2022-08-27T12:52:56.655Z,98057.69
2022-08-27T12:55:51.176Z,98056.69
2022-08-27T12:58:36.862Z,98060.19
2022-08-27T13:01:45.459Z,98053.16
2022-08-27T13:04:33.793Z,98047.69
2022-08-27T13:07:00.481Z,98044.88
2022-08-27T13:09:33.545Z,98033.97
2022-08-27T13:12:02.640Z,98044.88
2022-08-27T13:14:36.767Z,98047.38
2022-08-27T13:17:09.081Z,98050.03
2022-08-27T13:19:44.075Z,98039.69
2022-08-27T13:22:10.833Z,98049.03
2022-08-27T13:24:49.712Z,98041.84
2022-08-27T13:27:16.484Z,98048.88
2022-08-27T13:29:43.697Z,98044.38
2022-08-27T13:32:14.083Z,98037.22
2022-08-27T13:34:41.531Z,98042.53
2022-08-27T13:37:24.680Z,98037.03
2022-08-27T13:39:56.658Z,98037.03
2022-08-27T13:42:25.153Z,98035.22
2022-08-27T13:44:56.523Z,98041.38
2022-08-27T13:47:26.218Z,98034.38
2022-08-27T13:50:13.858Z,98030.03
2022-08-27T13:53:04.638Z,98029.19
2022-08-27T13:55:33.323Z,98031.53
2022-08-27T13:58:00.452Z,98023.53
2022-08-27T14:00:33.495Z,98027.88
2022-08-27T14:03:03.594Z,98022.53
2022-08-27T14:05:33.878Z,98026.06
2022-08-27T14:08:13.803Z,98025.91
2022-08-27T14:10:45.071Z,98025.06
2022-08-27T14:13:23.672Z,98019.72
2022-08-27T14:15:55.652Z,98021.38
2022-08-27T14:18:57.899Z,98008.69
2022-08-27T14:21:22.652Z,98017.72
2022-08-27T14:23:49.528Z,98015.06
2022-08-27T14:26:17.389Z,98017.72
2022-08-27T14:28:45.034Z,98006.34
2022-08-27T14:31:13.325Z,98025.72
2022-08-27T14:33:40.240Z,98022.41
2022-08-27T14:36:08.219Z,98032.75
2022-08-27T14:38:37.654Z,98030.91
2022-08-27T14:41:07.639Z,98027.56
2022-08-27T14:43:34.733Z,98014.19
2022-08-27T14:46:02.871Z,98038.06
2022-08-27T14:48:33.528Z,98033.56
2022-08-27T14:51:09.331Z,98022.72
2022-08-27T14:55:59.368Z,98037.09
2022-08-27T14:58:26.147Z,98037.09
2022-08-27T15:00:55.316Z,98041.44
2022-08-27T15:03:25.461Z,98044.91
2022-08-27T15:05:56.190Z,98032.91
2022-08-27T15:08:27.574Z,98044.91
2022-08-27T15:10:57.993Z,98045.78
2022-08-27T15:13:24.868Z,98053.59
2022-08-27T15:15:52.623Z,98054.44
2022-08-27T15:18:20.003Z,98060.63
2022-08-27T15:20:47.208Z,98054.44
2022-08-27T15:23:15.546Z,98060.47
2022-08-27T15:25:45.090Z,98053.28
2022-08-27T15:28:11.968Z,98061.28
2022-08-27T15:33:06.025Z,98054.13
2022-08-27T15:35:32.881Z,98054.94
2022-08-27T15:38:00.728Z,98056.63
2022-08-27T15:40:30.842Z,98061.97
2022-08-27T15:43:02.129Z,98061.97
2022-08-27T15:45:31.495Z,98058.47
2022-08-27T15:47:59.666Z,98057.31
2022-08-27T15:50:28.328Z,98056.31
2022-08-27T15:52:58.266Z,98067.81
2022-08-27T15:55:28.900Z,98060.63
2022-08-27T15:57:55.601Z,98055.28
2022-08-27T16:00:25.659Z,98067.66
2022-08-27T16:02:52.840Z,98063.16
2022-08-27T16:05:22.660Z,98060.13
2022-08-27T16:10:11.892Z,98050.59
2022-08-27T16:12:38.469Z,98069.16
2022-08-27T16:15:05.822Z,98067.47
2022-08-27T16:17:33.167Z,98069.16
2022-08-27T16:20:00.185Z,98076.16
2022-08-27T16:22:26.856Z,98075.34
2022-08-27T16:24:53.456Z,98071.72
2022-08-27T16:27:20.445Z,98075.22
2022-08-27T16:29:47.008Z,98073.50
2022-08-27T16:32:17.244Z,98078.84
2022-08-27T16:34:47.277Z,98082.41
2022-08-27T16:37:13.967Z,98084.03
2022-08-27T16:39:44.053Z,98080.56
2022-08-27T16:42:10.684Z,98080.56
2022-08-27T16:44:38.289Z,98085.88
2022-08-27T16:47:06.201Z,98071.47
2022-08-27T16:49:51.521Z,98085.88
2022-08-27T16:52:20.300Z,98085.06
2022-08-27T16:54:46.998Z,98089.38
2022-08-27T16:57:13.689Z,98086.72
2022-08-27T16:59:42.584Z,98086.16
2022-08-27T17:02:17.563Z,98098.25
2022-08-27T17:04:48.017Z,98096.41
2022-08-27T17:07:25.829Z,98095.56
2022-08-27T17:09:52.788Z,98100.91
2022-08-27T17:12:27.193Z,98099.22
2022-08-27T17:14:55.799Z,98103.59
2022-08-27T17:17:22.332Z,98101.72
2022-08-27T17:19:48.892Z,98109.75
2022-08-27T17:22:15.640Z,98108.91
2022-08-27T17:24:42.277Z,98110.59
2022-08-27T17:27:09.161Z,98118.59
2022-08-27T17:29:36.862Z,98110.88
2022-08-27T17:32:06.832Z,98119.59
2022-08-27T17:34:33.457Z,98123.94
2022-08-27T17:37:00.560Z,98129.28
2022-08-27T17:39:30.497Z,98129.28
2022-08-27T17:41:57.324Z,98118.59
2022-08-27T17:44:25.872Z,98122.94
2022-08-27T17:46:54.531Z,98124.78
2022-08-27T17:49:21.637Z,98129.28
2022-08-27T17:51:49.969Z,98120.41
2022-08-27T17:54:21.125Z,98113.53
2022-08-27T17:56:47.695Z,98113.28
2022-08-27T17:59:14.337Z,98114.09
2022-08-27T18:01:41.339Z,98118.59
2022-08-27T18:04:08.540Z,98121.28
2022-08-27T18:06:35.253Z,98126.63
2022-08-27T18:09:03.668Z,98135.44
2022-08-27T18:11:30.300Z,98138.97
2022-08-27T18:14:04.075Z,98137.28
2022-08-27T18:16:32.179Z,98120.22
2022-08-27T18:18:58.759Z,98127.44
2022-08-27T18:21:26.197Z,98124.78
2022-08-27T18:23:53.816Z,98124.78
2022-08-27T18:26:23.234Z,98135.44
2022-08-27T18:28:49.980Z,98137.28
2022-08-27T18:31:19.805Z,98142.63
2022-08-27T18:33:47.032Z,98146.13
2022-08-27T18:36:14.976Z,98144.31
2022-08-27T18:38:42.915Z,98146.97
2022-08-27T18:41:09.589Z,98153.13
2022-08-27T18:43:36.521Z,98163.81
2022-08-27T18:46:04.560Z,98155.81
2022-08-27T18:48:32.448Z,98155.00
2022-08-27T18:51:01.604Z,98145.91
2022-08-27T18:53:32.912Z,98158.22
2022-08-27T18:56:00.783Z,98163.56
2022-08-27T18:58:27.944Z,98185.34
2022-08-27T19:00:58.887Z,98187.16
2022-08-27T19:03:29.319Z,98195.84
2022-08-27T19:05:56.294Z,98203.03
2022-08-27T19:08:23.893Z,98224.38
2022-08-27T19:13:13.164Z,98228.72
2022-08-27T19:15:44.552Z,98230.56
2022-08-27T19:18:11.649Z,98232.41
2022-08-27T19:20:38.772Z,98240.41
2022-08-27T19:23:05.366Z,98240.41
2022-08-27T19:25:32.384Z,98229.03
2022-08-27T19:27:59.215Z,98240.41
2022-08-27T19:30:25.886Z,98245.75
2022-08-27T19:32:53.887Z,98246.03
2022-08-27T19:35:21.717Z,98252.34
2022-08-27T19:37:53.025Z,98259.81
2022-08-27T19:40:21.916Z,98262.50
2022-08-27T19:42:49.575Z,98263.34
2022-08-27T19:47:36.411Z,98259.91
2022-08-27T19:50:04.083Z,98279.19
2022-08-27T19:52:30.633Z,98281.88
2022-08-27T19:55:13.191Z,98279.03
2022-08-27T19:57:41.171Z,98281.69
2022-08-27T20:00:09.383Z,98277.25
2022-08-27T20:02:38.855Z,98268.34
2022-08-27T20:07:35.065Z,98263.47
2022-08-27T20:10:08.569Z,98268.34
2022-08-27T20:12:36.776Z,98255.91
2022-08-27T20:15:06.173Z,98240.59
2022-08-27T20:17:33.465Z,98248.97
2022-08-27T20:20:00.605Z,98242.28
2022-08-27T20:22:27.915Z,98242.66
2022-08-27T20:24:54.579Z,98243.50
2022-08-27T20:27:21.254Z,98239.16
2022-08-27T20:29:47.845Z,98248.84
2022-08-27T20:32:14.621Z,98248.00
2022-08-27T20:34:41.489Z,98272.00
2022-08-27T20:37:08.208Z,98274.69
2022-08-27T20:39:34.888Z,98289.88
2022-08-27T20:42:01.987Z,98312.06
2022-08-27T20:44:29.151Z,98322.72
2022-08-27T20:46:59.188Z,98301.28
2022-08-27T20:49:27.902Z,98306.63
2022-08-27T20:52:03.972Z,98286.09
2022-08-27T20:54:32.203Z,98246.03
2022-08-27T20:56:58.871Z,98226.38
2022-08-27T20:59:44.964Z,98220.03
2022-08-27T21:02:14.033Z,98212.16
2022-08-27T21:04:45.913Z,98194.34
2022-08-27T21:07:16.304Z,98185.34
2022-08-27T21:09:55.962Z,98180.00
2022-08-27T21:12:24.548Z,98167.91
2022-08-27T21:14:51.179Z,98164.97
2022-08-27T21:17:25.234Z,98151.47
2022-08-27T21:19:52.468Z,98149.13
2022-08-27T21:22:19.939Z,98147.97
2022-08-27T21:24:47.554Z,98143.44
2022-08-27T21:27:18.366Z,98135.44
2022-08-27T21:32:03.648Z,98132.78
2022-08-27T21:34:31.048Z,98127.44
2022-08-27T21:36:58.297Z,98121.28
2022-08-27T21:39:24.952Z,98111.41
2022-08-27T21:41:51.525Z,98113.28
2022-08-27T21:44:18.181Z,98103.59
2022-08-27T21:46:44.788Z,98101.72
2022-08-27T21:49:11.412Z,98106.09
2022-08-27T21:51:37.976Z,98107.94
2022-08-27T21:54:04.841Z,98107.06
2022-08-27T21:56:31.680Z,98104.41
2022-08-27T21:58:58.236Z,98109.75
2022-08-27T22:01:24.875Z,98111.59
2022-08-27T22:03:51.908Z,98097.38
2022-08-27T22:06:19.397Z,98096.41
2022-08-27T22:08:46.091Z,98099.91
2022-08-27T22:11:13.365Z,98103.59
2022-08-27T22:13:40.472Z,98107.25
2022-08-27T22:16:07.928Z,98115.09
2022-08-27T22:18:34.646Z,98109.53
2022-08-27T22:21:02.579Z,98119.59
2022-08-27T22:23:29.176Z,98123.25
2022-08-27T22:28:19.064Z,98124.09
2022-08-27T22:30:46.247Z,98122.53
2022-08-27T22:33:13.434Z,98124.09
2022-08-27T22:35:40.081Z,98130.28
2022-08-27T22:38:07.585Z,98132.09
2022-08-27T22:40:36.361Z,98133.75
2022-08-27T22:43:04.115Z,98140.94
2022-08-27T22:45:31.057Z,98132.94
2022-08-27T22:47:57.849Z,98138.28
2022-08-27T22:50:24.960Z,98135.78
2022-08-27T22:52:52.057Z,98145.44
2022-08-27T22:55:21.551Z,98146.28
2022-08-27T22:57:53.646Z,98136.59
2022-08-27T23:00:27.400Z,98145.44
2022-08-27T23:02:54.527Z,98144.44
2022-08-27T23:05:22.025Z,98140.94
2022-08-27T23:07:48.789Z,98135.63
2022-08-27T23:10:18.752Z,98146.28
2022-08-27T23:12:46.659Z,98142.75
2022-08-27T23:15:15.424Z,98140.09
2022-08-27T23:17:42.089Z,98139.28
2022-08-27T23:22:37.552Z,98153.44
2022-08-27T23:25:24.790Z,98142.06
2022-08-27T23:27:51.347Z,98157.13
2022-08-27T23:30:18.330Z,98162.47
2022-08-27T23:32:48.290Z,98159.81
2022-08-27T23:35:21.755Z,98161.59
2022-08-27T23:40:17.715Z,98154.56
2022-08-27T23:42:45.136Z,98153.56
2022-08-27T23:45:16.033Z,98157.25
2022-08-27T23:47:43.058Z,98159.09
2022-08-27T23:50:10.932Z,98156.25
2022-08-27T23:52:38.699Z,98158.91
2022-08-27T23:55:06.565Z,98157.13
2022-08-27T23:57:33.256Z,98158.09
2022-08-27T23:59:59.915Z,98154.56
